createdAt,value
2018-01-29T00:02:16.642Z,94.40
2018-01-29T00:04:44.979Z,94.30
2018-01-29T00:07:12.589Z,94.30
2018-01-29T00:09:40.135Z,94.30
2018-01-29T00:12:08.431Z,94.40
2018-01-29T00:14:35.992Z,94.40
2018-01-29T00:17:03.548Z,94.50
2018-01-29T00:19:31.090Z,94.60
2018-01-29T00:21:59.359Z,94.60
2018-01-29T00:24:27.666Z,94.50
2018-01-29T00:26:55.181Z,94.50
2018-01-29T00:29:22.718Z,94.20
2018-01-29T00:31:50.252Z,94.20
2018-01-29T00:34:17.802Z,94.10
2018-01-29T00:36:45.306Z,93.70
2018-01-29T00:39:12.856Z,93.60
2018-01-29T00:41:40.480Z,93.50
2018-01-29T00:44:08.006Z,93.40
2018-01-29T00:46:36.384Z,93.70
2018-01-29T00:49:06.199Z,93.60
2018-01-29T00:51:33.897Z,93.80
2018-01-29T00:54:01.461Z,93.60
2018-01-29T00:56:29.012Z,93.60
2018-01-29T00:58:56.576Z,93.50
2018-01-29T01:01:24.136Z,93.50
2018-01-29T01:03:51.691Z,93.40
2018-01-29T01:06:19.248Z,93.20
2018-01-29T01:08:46.794Z,93.20
2018-01-29T01:11:15.125Z,93.10
2018-01-29T01:13:42.758Z,93.10
2018-01-29T01:16:10.316Z,93.10
2018-01-29T01:18:37.885Z,93.20
2018-01-29T01:21:05.385Z,93.20
2018-01-29T01:23:32.934Z,93.20
2018-01-29T01:26:00.444Z,93.00
2018-01-29T01:28:28.084Z,93.10
2018-01-29T01:30:56.391Z,92.90
2018-01-29T01:33:25.523Z,92.80
2018-01-29T01:35:53.038Z,92.80
2018-01-29T01:38:21.975Z,92.80
2018-01-29T01:40:50.290Z,92.60
2018-01-29T01:43:20.353Z,92.60
2018-01-29T01:45:47.864Z,92.60
2018-01-29T01:48:16.192Z,92.50
2018-01-29T01:50:43.773Z,92.40
2018-01-29T01:53:11.342Z,92.40
2018-01-29T01:55:38.934Z,92.40
2018-01-29T01:58:06.498Z,92.30
2018-01-29T02:00:34.005Z,92.10
2018-01-29T02:03:01.551Z,92.00
2018-01-29T02:05:29.071Z,92.00
2018-01-29T02:07:56.602Z,92.00
2018-01-29T02:10:24.901Z,92.10
2018-01-29T02:12:52.469Z,92.00
2018-01-29T02:15:20.028Z,91.90
2018-01-29T02:17:47.567Z,91.90
2018-01-29T02:20:15.876Z,91.50
2018-01-29T02:22:43.437Z,91.50
2018-01-29T02:25:10.968Z,91.50
2018-01-29T02:27:39.276Z,91.40
2018-01-29T02:30:06.803Z,91.40
2018-01-29T02:32:35.101Z,91.30
2018-01-29T02:35:02.670Z,91.30
2018-01-29T02:37:30.235Z,91.30
2018-01-29T02:39:57.788Z,91.30
2018-01-29T02:42:25.345Z,91.30
2018-01-29T02:44:52.909Z,91.30
2018-01-29T02:47:20.478Z,91.30
2018-01-29T02:49:47.992Z,91.30
2018-01-29T02:52:16.286Z,91.30
2018-01-29T02:54:43.794Z,91.30
2018-01-29T02:57:11.331Z,91.20
2018-01-29T02:59:39.108Z,91.30
2018-01-29T03:02:06.638Z,91.30
2018-01-29T03:04:34.142Z,91.30
2018-01-29T03:07:01.667Z,91.40
2018-01-29T03:09:29.217Z,91.30
2018-01-29T03:11:56.753Z,91.30
2018-01-29T03:14:24.250Z,91.10
2018-01-29T03:16:51.824Z,91.10
2018-01-29T03:19:19.336Z,91.00
2018-01-29T03:21:46.895Z,91.00
2018-01-29T03:24:14.407Z,91.00
2018-01-29T03:26:42.024Z,91.00
2018-01-29T03:29:09.542Z,91.10
2018-01-29T03:31:37.080Z,91.10
2018-01-29T03:34:04.692Z,91.40
2018-01-29T03:36:32.203Z,91.10
2018-01-29T03:38:59.751Z,91.10
2018-01-29T03:41:27.296Z,91.10
2018-01-29T03:43:54.852Z,91.10
2018-01-29T03:46:22.397Z,91.20
2018-01-29T03:48:49.941Z,91.30
2018-01-29T03:51:18.427Z,91.30
2018-01-29T03:53:45.978Z,91.30
2018-01-29T03:56:13.494Z,91.30
2018-01-29T03:58:41.095Z,91.30
2018-01-29T04:01:09.363Z,91.10
2018-01-29T04:03:37.671Z,91.10
2018-01-29T04:06:05.182Z,91.10
2018-01-29T04:08:32.844Z,91.00
2018-01-29T04:11:01.120Z,91.30
2018-01-29T04:13:28.709Z,91.00
2018-01-29T04:15:56.227Z,91.00
2018-01-29T04:18:23.879Z,90.90
2018-01-29T04:20:52.446Z,90.90
2018-01-29T04:23:20.300Z,90.90
2018-01-29T04:25:47.847Z,90.70
2018-01-29T04:28:15.379Z,90.70
2018-01-29T04:30:43.683Z,90.50
2018-01-29T04:33:11.244Z,90.50
2018-01-29T04:35:38.779Z,90.60
2018-01-29T04:38:07.097Z,90.60
2018-01-29T04:40:34.613Z,90.60
2018-01-29T04:43:02.957Z,90.40
2018-01-29T04:45:30.485Z,90.40
2018-01-29T04:47:58.045Z,90.30
2018-01-29T04:50:25.556Z,90.20
2018-01-29T04:52:53.936Z,90.30
2018-01-29T04:55:21.552Z,90.30
2018-01-29T04:57:49.119Z,90.20
2018-01-29T05:00:16.641Z,90.20
2018-01-29T05:02:44.930Z,90.10
2018-01-29T05:05:12.473Z,90.10
2018-01-29T05:07:40.054Z,90.10
2018-01-29T05:10:07.603Z,90.10
2018-01-29T05:12:35.151Z,90.10
2018-01-29T05:15:03.449Z,90.10
2018-01-29T05:17:30.981Z,90.10
2018-01-29T05:19:59.299Z,90.00
2018-01-29T05:22:26.945Z,90.30
2018-01-29T05:24:55.962Z,89.60
2018-01-29T05:27:23.559Z,89.60
2018-01-29T05:29:51.831Z,89.70
2018-01-29T05:32:20.150Z,89.90
2018-01-29T05:34:47.660Z,89.50
2018-01-29T05:37:30.076Z,89.30
2018-01-29T05:39:57.699Z,89.10
2018-01-29T05:42:25.255Z,88.80
2018-01-29T05:44:52.750Z,88.90
2018-01-29T05:47:20.346Z,88.90
2018-01-29T05:49:47.861Z,88.80
2018-01-29T05:52:15.495Z,88.90
2018-01-29T05:54:43.051Z,88.50
2018-01-29T05:57:10.578Z,88.60
2018-01-29T05:59:38.106Z,88.20
2018-01-29T06:02:05.650Z,88.20
2018-01-29T06:04:33.195Z,88.10
2018-01-29T06:07:00.751Z,88.20
2018-01-29T06:09:28.274Z,88.10
2018-01-29T06:11:55.856Z,88.20
2018-01-29T06:14:23.373Z,88.10
2018-01-29T06:16:51.687Z,88.20
2018-01-29T06:19:19.333Z,88.10
2018-01-29T06:21:47.711Z,88.10
2018-01-29T06:24:15.256Z,88.10
2018-01-29T06:26:43.642Z,88.10
2018-01-29T06:29:11.156Z,88.00
2018-01-29T06:31:38.789Z,86.80
2018-01-29T06:34:06.389Z,86.60
2018-01-29T06:36:34.922Z,86.40
2018-01-29T06:39:02.486Z,86.60
2018-01-29T06:41:30.060Z,86.20
2018-01-29T06:43:57.596Z,86.30
2018-01-29T06:46:25.289Z,88.70
2018-01-29T06:48:52.784Z,85.80
2018-01-29T06:51:21.186Z,85.50
2018-01-29T06:53:48.714Z,85.40
2018-01-29T06:56:19.222Z,85.30
2018-01-29T06:58:46.829Z,85.30
2018-01-29T07:01:14.409Z,85.50
2018-01-29T07:03:41.970Z,85.50
2018-01-29T07:06:09.500Z,85.40
2018-01-29T07:08:37.778Z,85.40
2018-01-29T07:11:06.172Z,85.60
2018-01-29T07:13:33.740Z,85.60
2018-01-29T07:16:01.299Z,85.60
2018-01-29T07:18:28.831Z,85.60
2018-01-29T07:20:57.134Z,86.00
2018-01-29T07:23:24.760Z,86.00
2018-01-29T07:25:53.073Z,85.60
2018-01-29T07:28:20.581Z,85.60
2018-01-29T07:30:48.163Z,85.30
2018-01-29T07:33:16.455Z,85.20
2018-01-29T07:35:44.000Z,85.20
2018-01-29T07:38:11.778Z,90.00
2018-01-29T07:40:39.332Z,84.60
2018-01-29T07:43:07.607Z,84.10
2018-01-29T07:45:35.190Z,84.00
2018-01-29T07:48:02.710Z,84.10
2018-01-29T07:50:30.576Z,84.20
2018-01-29T07:52:58.264Z,84.10
2018-01-29T07:55:25.797Z,83.90
2018-01-29T07:57:54.119Z,84.00
2018-01-29T08:00:21.624Z,83.90
2018-01-29T08:02:49.158Z,84.00
2018-01-29T08:05:16.725Z,84.20
2018-01-29T08:07:44.245Z,84.00
2018-01-29T08:10:11.826Z,83.90
2018-01-29T08:12:39.337Z,84.20
2018-01-29T08:15:07.667Z,84.10
2018-01-29T08:17:35.196Z,84.10
2018-01-29T08:20:02.833Z,84.10
2018-01-29T08:22:31.111Z,84.10
2018-01-29T08:24:59.418Z,84.10
2018-01-29T08:27:26.978Z,84.10
2018-01-29T08:29:54.576Z,83.90
2018-01-29T08:32:22.182Z,83.90
2018-01-29T08:34:49.716Z,83.90
2018-01-29T08:37:18.015Z,84.60
2018-01-29T08:39:45.593Z,83.50
2018-01-29T08:42:13.110Z,83.50
2018-01-29T08:44:41.426Z,83.60
2018-01-29T08:47:08.985Z,83.40
2018-01-29T08:49:36.495Z,83.30
2018-01-29T08:52:04.057Z,83.30
2018-01-29T08:54:31.666Z,83.40
2018-01-29T08:56:59.230Z,84.10
2018-01-29T08:59:26.874Z,83.40
2018-01-29T09:01:54.455Z,83.40
2018-01-29T09:04:21.975Z,83.20
2018-01-29T09:06:50.299Z,82.90
2018-01-29T09:09:17.826Z,82.90
2018-01-29T09:11:45.390Z,82.40
2018-01-29T09:14:12.936Z,82.50
2018-01-29T09:16:41.401Z,82.50
2018-01-29T09:19:09.679Z,82.60
2018-01-29T09:21:37.995Z,82.50
2018-01-29T09:24:05.502Z,82.50
2018-01-29T09:26:33.051Z,82.40
2018-01-29T09:29:00.595Z,82.60
2018-01-29T09:31:28.167Z,82.20
2018-01-29T09:33:55.703Z,82.30
2018-01-29T09:36:23.422Z,82.30
2018-01-29T09:38:51.718Z,81.90
2018-01-29T09:41:19.253Z,81.90
2018-01-29T09:43:47.531Z,81.90
2018-01-29T09:46:15.945Z,81.90
2018-01-29T09:48:43.459Z,82.60
2018-01-29T09:51:11.154Z,81.60
2018-01-29T09:53:38.724Z,81.60
2018-01-29T09:56:06.264Z,81.40
2018-01-29T09:58:33.775Z,81.40
2018-01-29T10:01:01.343Z,81.60
2018-01-29T10:03:28.958Z,81.40
2018-01-29T10:05:56.482Z,81.60
2018-01-29T10:08:24.758Z,81.30
2018-01-29T10:10:53.084Z,81.50
2018-01-29T10:13:20.631Z,81.40
2018-01-29T10:15:48.191Z,81.20
2018-01-29T10:18:16.535Z,81.10
2018-01-29T10:20:44.870Z,80.90
2018-01-29T10:23:12.406Z,80.90
2018-01-29T10:25:39.959Z,80.80
2018-01-29T10:28:07.479Z,80.50
2018-01-29T10:30:35.807Z,80.70
2018-01-29T10:33:03.567Z,80.60
2018-01-29T10:35:31.142Z,80.70
2018-01-29T10:37:58.675Z,80.60
2018-01-29T10:40:26.231Z,80.40
2018-01-29T10:42:53.744Z,80.20
2018-01-29T10:45:21.350Z,80.30
2018-01-29T10:47:48.918Z,80.20
2018-01-29T10:50:16.460Z,80.10
2018-01-29T10:52:44.940Z,80.10
2018-01-29T10:55:12.517Z,80.00
2018-01-29T10:57:40.051Z,80.10
2018-01-29T11:00:08.358Z,80.00
2018-01-29T11:02:35.954Z,79.90
2018-01-29T11:05:03.530Z,79.30
2018-01-29T11:07:31.133Z,79.50
2018-01-29T11:09:58.729Z,79.10
2018-01-29T11:12:26.249Z,79.40
2018-01-29T11:14:53.818Z,79.40
2018-01-29T11:17:21.320Z,79.30
2018-01-29T11:19:48.870Z,79.10
2018-01-29T11:22:16.489Z,79.40
2018-01-29T11:24:45.875Z,79.40
2018-01-29T11:27:13.447Z,79.60
2018-01-29T11:29:40.970Z,80.00
2018-01-29T11:32:08.492Z,80.00
2018-01-29T11:34:36.047Z,79.80
2018-01-29T11:37:03.563Z,79.60
2018-01-29T11:39:31.890Z,79.80
2018-01-29T11:41:59.386Z,79.80
2018-01-29T11:44:27.794Z,79.70
2018-01-29T11:46:55.307Z,79.60
2018-01-29T11:49:22.859Z,79.80
2018-01-29T11:51:50.391Z,79.80
2018-01-29T11:54:17.928Z,79.90
2018-01-29T11:56:45.450Z,80.10
2018-01-29T11:59:13.014Z,80.20
2018-01-29T12:01:40.621Z,80.40
2018-01-29T12:04:08.155Z,80.20
2018-01-29T12:06:35.822Z,80.00
2018-01-29T12:09:03.388Z,80.00
2018-01-29T12:11:30.915Z,79.90
2018-01-29T12:13:58.443Z,80.10
2018-01-29T12:16:26.063Z,80.00
2018-01-29T12:18:53.646Z,80.30
2018-01-29T12:21:21.188Z,80.30
2018-01-29T12:23:48.754Z,80.30
2018-01-29T12:26:16.287Z,80.20
2018-01-29T12:28:44.579Z,80.20
2018-01-29T12:31:13.028Z,80.00
2018-01-29T12:33:40.564Z,80.20
2018-01-29T12:36:08.183Z,80.30
2018-01-29T12:38:35.763Z,80.20
2018-01-29T12:41:03.439Z,79.90
2018-01-29T12:43:31.092Z,80.00
2018-01-29T12:45:58.740Z,80.30
2018-01-29T12:48:26.281Z,80.20
2018-01-29T12:50:53.806Z,80.20
2018-01-29T12:53:21.419Z,80.50
2018-01-29T12:55:49.076Z,80.70
2018-01-29T12:58:16.632Z,79.90
2018-01-29T13:00:44.152Z,79.90
2018-01-29T13:03:11.708Z,79.90
2018-01-29T13:05:39.235Z,80.80
2018-01-29T13:08:06.870Z,80.70
2018-01-29T13:10:34.434Z,79.70
2018-01-29T13:13:02.813Z,79.40
2018-01-29T13:15:30.379Z,79.40
2018-01-29T13:17:57.919Z,79.30
2018-01-29T13:20:25.472Z,78.90
2018-01-29T13:22:53.765Z,78.80
2018-01-29T13:25:21.331Z,78.80
2018-01-29T13:27:48.954Z,78.80
2018-01-29T13:30:16.480Z,79.00
2018-01-29T13:32:44.027Z,78.50
2018-01-29T13:35:11.913Z,78.30
2018-01-29T13:37:39.626Z,78.20
2018-01-29T13:40:07.136Z,77.80
2018-01-29T13:42:34.679Z,77.90
2018-01-29T13:45:02.204Z,78.10
2018-01-29T13:47:29.743Z,78.20
2018-01-29T13:49:58.079Z,78.30
2018-01-29T13:52:25.610Z,78.30
2018-01-29T13:54:53.185Z,78.10
2018-01-29T13:57:20.819Z,78.40
2018-01-29T13:59:48.395Z,78.40
2018-01-29T14:02:15.989Z,78.20
2018-01-29T14:04:43.611Z,78.20
2018-01-29T14:07:11.176Z,78.30
2018-01-29T14:09:38.704Z,78.80
2018-01-29T14:12:07.011Z,78.40
2018-01-29T14:14:34.671Z,78.40
2018-01-29T14:17:02.215Z,78.50
2018-01-29T14:19:29.758Z,78.80
2018-01-29T14:21:58.098Z,78.60
2018-01-29T14:24:25.829Z,78.60
2018-01-29T14:26:53.449Z,78.40
2018-01-29T14:29:21.823Z,78.80
2018-01-29T14:31:49.335Z,78.80
2018-01-29T14:34:16.987Z,78.70
2018-01-29T14:36:44.808Z,79.50
2018-01-29T14:39:12.401Z,80.10
2018-01-29T14:41:39.943Z,80.50
2018-01-29T14:44:08.255Z,80.40
2018-01-29T14:46:35.774Z,80.40
2018-01-29T14:49:04.238Z,79.80
2018-01-29T14:51:31.950Z,79.70
2018-01-29T14:53:59.500Z,79.50
2018-01-29T14:56:27.115Z,79.40
2018-01-29T14:58:54.654Z,79.10
2018-01-29T15:01:22.171Z,79.10
2018-01-29T15:03:49.704Z,79.30
2018-01-29T15:06:18.002Z,79.00
2018-01-29T15:08:46.398Z,78.70
2018-01-29T15:11:13.972Z,78.70
2018-01-29T15:13:43.447Z,78.60
2018-01-29T15:16:11.766Z,78.60
2018-01-29T15:18:39.316Z,78.50
2018-01-29T15:21:06.822Z,78.80
2018-01-29T15:23:34.394Z,78.80
2018-01-29T15:26:02.792Z,79.10
2018-01-29T15:28:30.341Z,79.00
2018-01-29T15:30:57.866Z,79.00
2018-01-29T15:33:25.405Z,79.10
2018-01-29T15:35:52.941Z,79.00
2018-01-29T15:38:20.551Z,79.10
2018-01-29T15:40:48.115Z,79.00
2018-01-29T15:43:15.695Z,79.20
2018-01-29T15:45:44.204Z,79.10
2018-01-29T15:48:11.843Z,79.10
2018-01-29T15:50:39.453Z,79.10
2018-01-29T15:53:07.187Z,78.90
2018-01-29T15:55:34.693Z,78.50
2018-01-29T15:58:02.269Z,78.50
2018-01-29T16:00:30.578Z,78.50
2018-01-29T16:02:58.134Z,78.40
2018-01-29T16:05:26.507Z,78.40
2018-01-29T16:07:54.032Z,78.40
2018-01-29T16:10:21.570Z,78.30
2018-01-29T16:12:49.162Z,78.30
2018-01-29T16:15:17.480Z,78.30
2018-01-29T16:17:45.027Z,78.10
2018-01-29T16:20:12.568Z,78.00
2018-01-29T16:22:40.842Z,78.20
2018-01-29T16:25:08.364Z,78.20
2018-01-29T16:27:35.901Z,78.30
2018-01-29T16:30:03.433Z,78.30
2018-01-29T16:32:30.967Z,78.60
2018-01-29T16:34:59.262Z,78.50
2018-01-29T16:37:26.810Z,78.50
2018-01-29T16:39:55.096Z,79.30
2018-01-29T16:42:22.687Z,79.30
2018-01-29T16:44:50.351Z,80.40
2018-01-29T16:47:18.100Z,81.60
2018-01-29T16:49:45.642Z,82.50
2018-01-29T16:52:13.247Z,83.20
2018-01-29T16:54:40.775Z,83.30
2018-01-29T16:57:08.450Z,83.60
2018-01-29T16:59:36.175Z,82.70
2018-01-29T17:02:04.845Z,82.20
2018-01-29T17:04:33.196Z,81.80
2018-01-29T17:07:01.782Z,81.80
2018-01-29T17:09:29.625Z,81.30
2018-01-29T17:11:57.279Z,81.70
2018-01-29T17:14:24.905Z,82.00
2018-01-29T17:16:53.276Z,84.40
2018-01-29T17:19:21.435Z,83.70
2018-01-29T17:21:49.085Z,83.10
2018-01-29T17:24:16.633Z,83.80
2018-01-29T17:26:44.231Z,83.60
2018-01-29T17:29:11.956Z,83.70
2018-01-29T17:31:39.526Z,83.80
2018-01-29T17:34:07.508Z,86.60
2018-01-29T17:36:36.302Z,83.70
2018-01-29T17:39:04.590Z,83.40
2018-01-29T17:41:32.246Z,83.40
2018-01-29T17:43:59.862Z,83.70
2018-01-29T17:46:27.670Z,83.90
2018-01-29T17:48:55.239Z,84.40
2018-01-29T17:51:22.819Z,84.90
2018-01-29T17:53:51.288Z,85.10
2018-01-29T17:56:20.159Z,85.10
2018-01-29T17:58:47.770Z,85.20
2018-01-29T18:01:15.361Z,85.30
2018-01-29T18:03:42.999Z,85.50
2018-01-29T18:06:10.742Z,85.70
2018-01-29T18:08:38.349Z,85.80
2018-01-29T18:11:05.928Z,85.90
2018-01-29T18:13:33.556Z,86.80
2018-01-29T18:16:01.078Z,86.20
2018-01-29T18:18:28.646Z,86.90
2018-01-29T18:20:56.154Z,87.50
2018-01-29T18:23:23.973Z,88.40
2018-01-29T18:25:52.359Z,88.40
2018-01-29T18:28:19.931Z,88.60
2018-01-29T18:30:47.690Z,88.90
2018-01-29T18:33:15.234Z,89.40
2018-01-29T18:35:42.763Z,89.60
2018-01-29T18:38:11.238Z,90.20
2018-01-29T18:40:38.697Z,90.20
2018-01-29T18:43:07.034Z,90.50
2018-01-29T18:45:34.558Z,90.50
2018-01-29T18:48:03.504Z,90.70
2018-01-29T18:53:05.952Z,91.00
2018-01-29T18:55:33.474Z,91.00
2018-01-29T18:58:01.039Z,91.00
2018-01-29T19:00:29.319Z,91.60
2018-01-29T19:02:57.792Z,91.80
2018-01-29T19:05:26.104Z,92.00
2018-01-29T19:07:53.684Z,92.00
2018-01-29T19:10:21.370Z,92.20
2018-01-29T19:12:49.783Z,92.50
2018-01-29T19:15:18.195Z,92.60
2018-01-29T19:17:45.729Z,92.60
2018-01-29T19:20:14.027Z,93.10
2018-01-29T19:22:41.644Z,93.10
2018-01-29T19:25:09.962Z,93.70
2018-01-29T19:27:37.915Z,94.20
2018-01-29T19:30:05.461Z,93.90
2018-01-29T19:32:33.783Z,94.90
2018-01-29T19:35:01.307Z,94.80
2018-01-29T19:37:28.840Z,94.90
2018-01-29T19:39:57.304Z,95.10
2018-01-29T19:42:24.859Z,95.40
2018-01-29T19:44:52.439Z,95.60
2018-01-29T19:47:19.994Z,95.70
2018-01-29T19:49:47.494Z,96.00
2018-01-29T19:52:15.073Z,96.10
2018-01-29T19:54:42.647Z,96.90
2018-01-29T19:57:10.182Z,96.50
2018-01-29T19:59:37.753Z,96.50
2018-01-29T20:02:05.334Z,96.30
2018-01-29T20:04:32.972Z,95.40
2018-01-29T20:07:00.487Z,94.30
2018-01-29T20:09:28.811Z,94.40
2018-01-29T20:11:56.401Z,94.40
2018-01-29T20:14:24.790Z,94.40
2018-01-29T20:16:52.420Z,94.00
2018-01-29T20:19:19.931Z,93.80
2018-01-29T20:21:47.564Z,93.70
2018-01-29T20:24:15.103Z,93.30
2018-01-29T20:26:42.664Z,92.60
2018-01-29T20:29:10.326Z,92.70
2018-01-29T20:31:37.937Z,92.50
2018-01-29T20:34:05.455Z,92.00
2018-01-29T20:36:32.989Z,91.50
2018-01-29T20:39:00.592Z,91.50
2018-01-29T20:41:28.138Z,91.60
2018-01-29T20:43:55.766Z,91.50
2018-01-29T20:46:23.408Z,91.70
2018-01-29T20:48:50.949Z,91.70
2018-01-29T20:51:19.359Z,91.80
2018-01-29T20:53:46.923Z,91.80
2018-01-29T20:56:14.584Z,91.60
2018-01-29T20:58:42.254Z,91.60
2018-01-29T21:01:09.818Z,91.70
2018-01-29T21:03:37.346Z,91.50
2018-01-29T21:06:04.965Z,91.60
2018-01-29T21:08:32.480Z,91.30
2018-01-29T21:11:00.022Z,91.20
2018-01-29T21:13:27.527Z,91.30
2018-01-29T21:15:55.365Z,91.10
2018-01-29T21:18:22.899Z,91.00
2018-01-29T21:20:50.455Z,90.80
2018-01-29T21:23:17.998Z,90.80
2018-01-29T21:25:46.304Z,90.80
2018-01-29T21:28:13.912Z,90.70
2018-01-29T21:30:41.550Z,90.70
2018-01-29T21:33:09.102Z,90.70
2018-01-29T21:35:36.623Z,90.60
2018-01-29T21:38:04.925Z,90.40
2018-01-29T21:40:32.643Z,90.40
2018-01-29T21:43:00.249Z,90.30
2018-01-29T21:45:31.306Z,90.90
2018-01-29T21:47:58.806Z,90.50
2018-01-29T21:50:26.368Z,90.70
2018-01-29T21:52:54.751Z,90.50
2018-01-29T21:55:23.050Z,90.50
2018-01-29T21:57:50.829Z,90.50
2018-01-29T22:00:18.355Z,90.10
2018-01-29T22:02:46.657Z,89.80
2018-01-29T22:05:14.214Z,89.70
2018-01-29T22:07:41.781Z,89.70
2018-01-29T22:10:09.320Z,90.00
2018-01-29T22:12:37.621Z,89.80
2018-01-29T22:15:05.173Z,89.70
2018-01-29T22:17:32.675Z,89.70
2018-01-29T22:20:00.206Z,89.90
2018-01-29T22:22:27.726Z,89.70
2018-01-29T22:24:56.065Z,90.00
2018-01-29T22:27:23.644Z,89.90
2018-01-29T22:29:51.157Z,90.00
2018-01-29T22:32:18.688Z,89.60
2018-01-29T22:34:47.007Z,89.60
2018-01-29T22:37:14.528Z,89.60
2018-01-29T22:39:42.079Z,89.50
2018-01-29T22:42:10.413Z,89.90
2018-01-29T22:44:38.032Z,89.80
2018-01-29T22:47:05.573Z,90.00
2018-01-29T22:49:33.861Z,90.10
2018-01-29T22:52:01.406Z,90.10
2018-01-29T22:54:29.707Z,90.40
2018-01-29T22:56:57.303Z,90.40
2018-01-29T22:59:24.833Z,90.40
2018-01-29T23:01:53.122Z,90.60
2018-01-29T23:04:20.636Z,90.60
2018-01-29T23:06:48.937Z,90.50
2018-01-29T23:09:16.554Z,90.40
2018-01-29T23:11:44.246Z,90.40
2018-01-29T23:14:12.546Z,90.40
2018-01-29T23:16:40.080Z,90.40
2018-01-29T23:19:08.348Z,90.50
2018-01-29T23:21:36.675Z,90.60
2018-01-29T23:24:04.210Z,90.60
2018-01-29T23:26:31.752Z,90.70
2018-01-29T23:29:00.124Z,90.80
2018-01-29T23:31:31.844Z,91.00
2018-01-29T23:33:59.434Z,91.00
2018-01-29T23:36:27.833Z,90.80
2018-01-29T23:38:55.333Z,90.80
2018-01-29T23:41:22.871Z,90.90
2018-01-29T23:43:50.387Z,90.70
2018-01-29T23:46:18.722Z,90.60
2018-01-29T23:48:46.240Z,90.60
2018-01-29T23:51:14.551Z,90.30
2018-01-29T23:53:42.067Z,90.30
2018-01-29T23:56:10.404Z,90.40
2018-01-29T23:58:37.907Z,90.30
